Flight Track Log - Related Links

Times and Time Zones

All times are in EDT time to prevent confusion due to time zone crossing. See the FSR411 flight status page for this flight to view local times or setup timezone preferences in your user account.

Time Position Orientation Groundspeed Altitude Reporting Facility
EDT Latitude Longitude Course Direction KTS MPH feet Rate Location/Type
Wed 06:24:09 PM 42.3408 -82.9428 145° Southeast 206 237 5,100  Level Cleveland Center
Wed 06:25:01 PM 42.2833 -82.9011 152° Southeast 286 329 7,900 2,857 Climbing Cleveland Center
Wed 06:25:12 PM 42.2747 -82.9014 181° South 264 304 8,100 2,507 Climbing Cleveland Center
Wed 06:26:08 PM 42.2133 -82.9708 220° Southwest 299 344 10,700 2,516 Climbing Cleveland Center
Wed 06:26:14 PM 42.2108 -82.9708 180° South 294 338 10,700 1,565 Level Cleveland Center
Wed 06:27:17 PM 42.1344 -83.0675 223° Southwest 376 433 12,500 1,095 Climbing Cleveland Center
Wed 06:28:20 PM 42.0622 -83.1875 231° Southwest 406 467 13,000 1,152 Climbing Cleveland Center
Wed 06:29:22 PM 41.9839 -83.3097 229° Southwest 412 474 14,900 3,242 Climbing Cleveland Center
Wed 06:30:24 PM 41.8950 -83.4528 230° Southwest 424 488 19,700 3,696 Climbing Cleveland Center
Wed 06:31:27 PM 41.8156 -83.5781 230° Southwest 435 501 22,600 2,400 Climbing Cleveland Center
Wed 06:32:29 PM 41.7344 -83.7064 230° Southwest 446 513 24,700 2,274 Climbing Cleveland Center
Wed 06:33:31 PM 41.6433 -83.8214 223° Southwest 459 528 27,300 1,584 Climbing Cleveland Center
Wed 06:34:34 PM 41.5319 -83.9092 211° Southwest 465 535 28,000 333 Climbing Cleveland Center
Wed 06:35:37 PM 41.4175 -83.9986 210° Southwest 476 548 28,000  Level Cleveland Center
Wed 06:36:34 PM 41.2967 -84.1128 215° Southwest 473 544 28,000  Level Chicago Center
Wed 06:37:37 PM 41.2392 -84.2711 244° Southwest 475 547 28,000  Level Chicago Center
Wed 06:38:39 PM 41.1942 -84.4361 250° West 476 548 28,000  Level Chicago Center
Wed 06:39:41 PM 41.1486 -84.5978 250° West 470 541 28,000  Level Chicago Center
Wed 06:40:44 PM 41.1033 -84.7586 250° West 466 536 28,000  Level Chicago Center
Wed 06:41:46 PM 41.0567 -84.9181 249° West 463 533 28,000  Level Chicago Center
Wed 06:42:48 PM 41.0011 -85.1111 249° West 465 535 28,000  Level Chicago Center
Wed 06:43:50 PM 40.9536 -85.2714 249° West 466 536 28,000  Level Chicago Center
Wed 06:44:53 PM 40.9067 -85.4333 249° West 469 540 28,000  Level Chicago Center
Wed 06:45:55 PM 40.8600 -85.5958 249° West 471 542 28,000  Level Chicago Center
Wed 06:46:57 PM 40.8125 -85.7578 249° West 472 543 28,000  Level Chicago Center
Wed 06:48:00 PM 40.7653 -85.9200 249° West 473 544 28,000 -240 Level Chicago Center
Wed 06:49:02 PM 40.7056 -86.1203 249° West 487 560 27,500 -871 Descending Chicago Center
Wed 06:50:04 PM 40.6631 -86.2672 249° West 482 555 26,200 -1,392 Descending Chicago Center
Wed 06:51:07 PM 40.6056 -86.4589 248° West 474 545 24,600 -1,488 Descending Chicago Center
Wed 06:52:09 PM 40.5578 -86.6181 248° West 472 543 23,100 -1,597 Descending Chicago Center
Wed 06:53:11 PM 40.5111 -86.7747 249° West 468 539 21,300 -1,728 Descending Chicago Center
Wed 06:54:14 PM 40.4647 -86.9228 248° West 451 519 19,500 -1,824 Descending Chicago Center
Wed 06:55:16 PM 40.4114 -87.0956 248° West 434 499 17,500 -1,742 Descending Chicago Center
Wed 06:56:18 PM 40.3694 -87.2344 248° West 420 483 15,900 -1,536 Descending Chicago Center
Wed 06:57:21 PM 40.3261 -87.3697 247° West 409 471 14,300 -1,536 Descending Chicago Center
Wed 06:58:23 PM 40.2850 -87.5044 248° West 400 460 12,700 -1,500 Descending Chicago Center
Wed 06:59:25 PM 40.2464 -87.6275 248° West 376 433 11,200 -1,680 Descending Chicago Center
Wed 07:00:28 PM 40.2069 -87.7536 248° West 316 364 9,200 -2,112 Descending Chicago Center
Wed 07:01:30 PM 40.1767 -87.8494 248° West 298 343 6,800 -1,935 Descending Chicago Center
Wed 07:02:32 PM 40.1461 -87.9450 247° West 286 329 5,200 -1,392 Descending Chicago Center
Wed 07:03:35 PM 40.1142 -88.0464 248° West 280 322 3,900 -1,238 Descending Chicago Center
Wed 07:05:00 PM 40.0442 -88.2234 252° West  Level FlightAware Approximate
Wed 07:12:00 PM 40.0333 -88.2667 252° West  Level FlightAware Approximate
Wed 07:13:00 PM 40.0388 -88.2778 252° West  Level Estimated
Wed 07:14:00 PM 40.0388 -88.2778 252° West  Level Estimated
Wed 07:15:00 PM 40.0388 -88.2778 252° West  Level Estimated
Wed 07:16:00 PM 40.0388 -88.2778 252° West  Level Estimated

Login

Don't have an account? Register now (free) for customized features, flight alerts, and more!